Terminal Aerodrome Forecast
Issued by NWS

Home | Current Version | Previous Version | Text Only | Print | Product List | Glossary On
Versions: 1 2 3 4 5 6 7 8 9 10 11 12 13 14 15 16 17 18 19 20 21 22 23 24
932
FTUS43 KDLH 202321
TAFHIB
TAF
KHIB 202321Z 2100/2124 28006KT P6SM SCT150
      TEMPO 2108/2112 5SM BR
     FM211400 VRB03KT P6SM BKN150=

USA.gov is the U.S. government's official web portal to all federal, state and local government web resources and services.